Bellefontaine, OH

9:54 PM EDT on March 26, 2017 (GMT -0400)
Bellefontaine

Weather History for KEDJ - December, 2013

Change the Weather History Date:

Saturday, December 7, 2013

  Actual Average (KDAY) Record (KDAY)
Temperature  
Mean Temperature 19 °F -  
Max Temperature 26 °F 41 °F 68 °F (1998)
Min Temperature 12 °F 28 °F -1 °F (1977)
Degree Days  
Heating Degree Days 46    
Moisture  
Dew Point 15 °F    
Average Humidity 81    
Maximum Humidity 100    
Minimum Humidity 63    
Precipitation  
Precipitation 0.00 in - - ()
Sea Level Pressure  
Sea Level Pressure 30.48 in    
Wind  
Wind Speed 1 mph (NW)    
Max Wind Speed 8 mph    
Max Gust Speed -    
Visibility 10 miles    
Events      
Averages and records for this station are not official NWS values.
T = Trace of Precipitation, MM = Missing Value Source: NWS Daily Summary

Daily Weather History Graph

Daily Weather History Graph

Search for Another Location

Airport or City:

Trip Planner

Search our weather history database for the weather conditions in past years. The results will help you decide how hot, cold, wet, or windy it might be!

Date:

Astronomy

Dec. 07, 2013 Rise Set
Actual Time 7:44 AM EST 5:08 PM EST
Civil Twilight 7:14 AM EST 5:39 PM EST
Nautical Twilight 6:40 AM EST 6:13 PM EST
Astronomical Twilight 6:07 AM EST 6:46 PM EST
Moon 11:28 AM EST (12/7) 10:49 PM EST (12/7)
Length of Visible Light 10h 24m
Length of Day
9h 23m
Waxing Crescent, 29% of the Moon is Illuminated
Dec 7
Waxing Crescent
Dec 9
First Quarter
Dec 17
Full
Dec 25
Last Quarter
Jan 1
New

Hourly Weather History & Observations

Time (EST) Temp. Windchill Dew Point Humidity Pressure Visibility Wind Dir Wind Speed Gust Speed Precip Events Conditions
12:05 AM 26.6 °F - 24.8 °F 93% 30.34 in 8.0 mi Calm Calm - 0.00 in   Mostly Cloudy
12:25 AM 24.8 °F - 24.8 °F 100% 30.33 in 10.0 mi Calm Calm - 0.00 in   Mostly Cloudy
12:45 AM 24.8 °F - 23.0 °F 93% 30.34 in 10.0 mi Calm Calm - 0.00 in   Overcast
1:05 AM 26.6 °F - 23.0 °F 86% 30.33 in 10.0 mi Calm Calm - 0.00 in   Overcast
1:25 AM 26.6 °F - 23.0 °F 86% 30.34 in 10.0 mi Calm Calm - 0.00 in   Overcast
1:45 AM 26.6 °F - 21.2 °F 80% 30.34 in 10.0 mi Calm Calm - 0.00 in   Overcast
2:05 AM 24.8 °F - 19.4 °F 80% 30.34 in 10.0 mi Calm Calm - 0.00 in   Overcast
2:25 AM 23.0 °F - 19.4 °F 86% 30.36 in 10.0 mi Calm Calm - 0.00 in   Overcast
2:45 AM 23.0 °F - 19.4 °F 86% 30.38 in 10.0 mi Calm Calm - 0.00 in   Overcast
3:05 AM 23.0 °F - 17.6 °F 80% 30.38 in 10.0 mi Calm Calm - 0.00 in   Overcast
3:25 AM 23.0 °F - 17.6 °F 80% 30.39 in 10.0 mi Calm Calm - 0.00 in   Overcast
3:45 AM 23.0 °F - 17.6 °F 80% 30.39 in 10.0 mi Calm Calm - 0.00 in   Overcast
4:05 AM 23.0 °F - 17.6 °F 80% 30.40 in 10.0 mi Calm Calm - 0.00 in   Overcast
4:25 AM 21.2 °F - 17.6 °F 86% 30.41 in 10.0 mi Calm Calm - 0.00 in   Overcast
4:45 AM 21.2 °F - 17.6 °F 86% 30.41 in 10.0 mi Calm Calm - 0.00 in   Overcast
5:05 AM 21.2 °F - 17.6 °F 86% 30.42 in 10.0 mi Calm Calm - 0.00 in   Overcast
5:25 AM 21.2 °F - 15.8 °F 80% 30.43 in 10.0 mi Calm Calm - 0.00 in   Overcast
5:45 AM 21.2 °F - 15.8 °F 80% 30.44 in 10.0 mi Calm Calm - 0.00 in   Overcast
6:05 AM 21.2 °F - 14.0 °F 74% 30.44 in 10.0 mi Calm Calm - 0.00 in   Overcast
6:25 AM 21.2 °F - 12.2 °F 68% 30.45 in 10.0 mi Calm Calm - 0.00 in   Mostly Cloudy
6:45 AM 19.4 °F - 12.2 °F 74% 30.46 in 10.0 mi North - - 0.00 in   Mostly Cloudy
7:05 AM 19.4 °F - 12.2 °F 74% 30.47 in 10.0 mi North - - 0.00 in   Mostly Cloudy
7:25 AM 17.6 °F - 12.2 °F 79% 30.47 in 10.0 mi North - - 0.00 in   Clear
7:45 AM 15.8 °F - 12.2 °F 86% 30.48 in 10.0 mi North - - 0.00 in   Clear
8:05 AM 15.8 °F - 12.2 °F 86% 30.48 in 10.0 mi North - - 0.00 in   Clear
8:25 AM 15.8 °F - 12.2 °F 86% 30.49 in 10.0 mi North - - 0.00 in   Clear
8:45 AM 17.6 °F - 14.0 °F 86% 30.50 in 10.0 mi North - - 0.00 in   Clear
9:05 AM 17.6 °F - 12.2 °F 79% 30.51 in 10.0 mi North - - 0.00 in   Clear
9:25 AM 19.4 °F - 14.0 °F 80% 30.51 in 10.0 mi North - - 0.00 in   Clear
9:45 AM 19.4 °F - 14.0 °F 80% 30.51 in 10.0 mi Calm Calm - 0.00 in   Clear
10:05 AM 21.2 °F - 14.0 °F 74% 30.52 in 10.0 mi Calm Calm - 0.00 in   Clear
10:25 AM 23.0 °F - 15.8 °F 74% 30.53 in 10.0 mi Calm Calm - 0.00 in   Mostly Cloudy
10:45 AM 23.0 °F 17.0 °F 14.0 °F 68% 30.53 in 10.0 mi WNW 4.6 mph - 0.00 in   Overcast
11:05 AM 21.2 °F 14.9 °F 14.0 °F 74% 30.54 in 10.0 mi West 4.6 mph - 0.00 in   Mostly Cloudy
11:25 AM 23.0 °F 15.8 °F 15.8 °F 74% 30.54 in 10.0 mi WNW 5.8 mph - 0.00 in   Partly Cloudy
11:45 AM 23.0 °F 14.7 °F 15.8 °F 74% 30.53 in 10.0 mi NW 6.9 mph - 0.00 in   Partly Cloudy
12:05 PM 23.0 °F 18.4 °F 14.0 °F 68% 30.53 in 10.0 mi WNW 3.5 mph - 0.00 in   Scattered Clouds
12:25 PM 23.0 °F 14.7 °F 14.0 °F 68% 30.52 in 10.0 mi WNW 6.9 mph - 0.00 in   Mostly Cloudy
12:45 PM 23.0 °F 18.4 °F 14.0 °F 68% 30.51 in 10.0 mi WNW 3.5 mph - 0.00 in   Overcast
1:05 PM 24.8 °F 19.1 °F 14.0 °F 64% 30.51 in 10.0 mi NNW 4.6 mph - 0.00 in   Overcast
1:25 PM 24.8 °F 16.9 °F 15.8 °F 69% 30.51 in 10.0 mi NW 6.9 mph - 0.00 in   Overcast
1:45 PM 24.8 °F 17.9 °F 14.0 °F 64% 30.51 in 10.0 mi NW 5.8 mph - 0.00 in   Overcast
2:05 PM 24.8 °F 16.1 °F 15.8 °F 69% 30.50 in 10.0 mi NW 8.1 mph - 0.00 in   Overcast
2:25 PM 23.0 °F 13.9 °F 15.8 °F 74% 30.50 in 10.0 mi NW 8.1 mph - 0.00 in   Overcast
2:45 PM 23.0 °F 13.9 °F 15.8 °F 74% 30.50 in 10.0 mi NW 8.1 mph - 0.00 in   Overcast
3:05 PM 23.0 °F 13.9 °F 14.0 °F 68% 30.50 in 10.0 mi NW 8.1 mph - 0.00 in   Overcast
3:25 PM 23.0 °F 18.4 °F 12.2 °F 63% 30.50 in 10.0 mi NW 3.5 mph - 0.00 in   Mostly Cloudy
3:45 PM 23.0 °F 17.0 °F 14.0 °F 68% 30.50 in 10.0 mi North 4.6 mph - 0.00 in   Partly Cloudy
4:05 PM 21.2 °F - 14.0 °F 74% 30.51 in 10.0 mi Calm Calm - 0.00 in   Mostly Cloudy
4:25 PM 23.0 °F 17.0 °F 14.0 °F 68% 30.52 in 10.0 mi WNW 4.6 mph - 0.00 in   Overcast
4:45 PM 21.2 °F 16.4 °F 14.0 °F 74% 30.52 in 10.0 mi West 3.5 mph - 0.00 in   Overcast
5:05 PM 21.2 °F 16.4 °F 14.0 °F 74% 30.52 in 10.0 mi West 3.5 mph - 0.00 in   Overcast
5:25 PM 21.2 °F - 14.0 °F 74% 30.52 in 10.0 mi Calm Calm - 0.00 in   Mostly Cloudy
5:45 PM 19.4 °F - 14.0 °F 80% 30.53 in 10.0 mi Calm Calm - 0.00 in   Partly Cloudy
6:05 PM 19.4 °F - 14.0 °F 80% 30.52 in 10.0 mi Calm Calm - 0.00 in   Clear
6:25 PM 19.4 °F - 14.0 °F 80% 30.53 in 10.0 mi Calm Calm - 0.00 in   Clear
6:45 PM 17.6 °F - 12.2 °F 79% 30.53 in 10.0 mi Calm Calm - 0.00 in   Clear
7:05 PM 17.6 °F - 14.0 °F 86% 30.54 in 10.0 mi Calm Calm - 0.00 in   Clear
7:25 PM 15.8 °F - 12.2 °F 86% 30.55 in 10.0 mi Calm Calm - 0.00 in   Clear
7:45 PM 17.6 °F - 14.0 °F 86% 30.54 in 10.0 mi Calm Calm - 0.00 in   Clear
8:05 PM 15.8 °F - 14.0 °F 93% 30.55 in 10.0 mi Calm Calm - 0.00 in   Clear
8:25 PM 14.0 °F - 12.2 °F 93% 30.54 in 10.0 mi Calm Calm - 0.00 in   Clear
8:45 PM 14.0 °F - 14.0 °F 100% 30.54 in 10.0 mi Calm Calm - 0.00 in   Clear
9:05 PM 14.0 °F - 14.0 °F 100% 30.53 in 10.0 mi Calm Calm - 0.00 in   Clear
9:25 PM 14.0 °F - 14.0 °F 100% 30.54 in 10.0 mi Calm Calm - 0.00 in   Clear
9:45 PM 14.0 °F - 12.2 °F 93% 30.54 in 10.0 mi Calm Calm - 0.00 in   Clear
10:05 PM 12.2 °F - 10.4 °F 92% 30.53 in 10.0 mi Calm Calm - 0.00 in   Clear
10:25 PM 12.2 °F - 12.2 °F 100% 30.54 in 9.0 mi Calm Calm - 0.00 in   Clear
10:45 PM 14.0 °F - 14.0 °F 100% 30.52 in 10.0 mi Calm Calm - 0.00 in   Clear
11:05 PM 14.0 °F 8.2 °F 12.2 °F 93% 30.51 in 10.0 mi NE 3.5 mph - 0.00 in   Clear
11:25 PM 12.2 °F 6.1 °F 10.4 °F 92% 30.51 in 10.0 mi ENE 3.5 mph - 0.00 in   Clear
11:45 PM 12.2 °F 4.3 °F 10.4 °F 92% 30.50 in 10.0 mi NE 4.6 mph - 0.00 in   Clear